GIA731 WARR-WIII
Flight info
| Callsign | GIA731 |
|---|---|
| Flight time | N/A |
| Altitude | 34000 |
| Route | LASEM T2 KALUT T6 KURUS |
| Aircraft | B38M/M-SDE1FGHILORVWXY/HB1 |
Departure
| Time | N/A |
|---|---|
| Airport | Juanda International Airport (WARR) |
Arrival
| Time | 2026-04-28 07:47 |
|---|---|
| Airport | Soekarno-Hatta International Airport (WIII) |
| Time | Latitude | Longitude | Altitude | Speed | Heading |
|---|---|---|---|---|---|
| 2026-04-28 06:56 | -6.46618 | 111.32209 | 32610 ft | 482 kts | 298° |
| 2026-04-28 06:57 | -6.45063 | 111.29217 | 32914 ft | 482 kts | 298° |
| 2026-04-28 06:57 | -6.43507 | 111.26225 | 33221 ft | 481 kts | 298° |
| 2026-04-28 06:57 | -6.41958 | 111.23248 | 33522 ft | 480 kts | 298° |
| 2026-04-28 06:57 | -6.40414 | 111.20280 | 33782 ft | 480 kts | 299° |
| 2026-04-28 06:58 | -6.38865 | 111.17302 | 33801 ft | 478 kts | 298° |
| 2026-04-28 06:58 | -6.35784 | 111.11415 | 33798 ft | 477 kts | 300° |
| 2026-04-28 06:59 | -6.32626 | 111.05547 | 33811 ft | 477 kts | 300° |
| 2026-04-28 06:59 | -6.29476 | 110.99676 | 33809 ft | 477 kts | 300° |
| 2026-04-28 07:00 | -6.26325 | 110.93806 | 33816 ft | 477 kts | 300° |
| 2026-04-28 07:00 | -6.23172 | 110.87932 | 33805 ft | 477 kts | 300° |
| 2026-04-28 07:01 | -6.20023 | 110.82070 | 33802 ft | 477 kts | 300° |
| 2026-04-28 07:01 | -6.16867 | 110.76196 | 33802 ft | 477 kts | 300° |
| 2026-04-28 07:02 | -6.13717 | 110.70334 | 33800 ft | 477 kts | 300° |
| 2026-04-28 07:02 | -6.10564 | 110.64468 | 33805 ft | 476 kts | 300° |
| 2026-04-28 07:03 | -6.07413 | 110.58609 | 33817 ft | 477 kts | 300° |
| 2026-04-28 07:03 | -6.04256 | 110.52741 | 33815 ft | 477 kts | 300° |
| 2026-04-28 07:04 | -6.01122 | 110.46916 | 33815 ft | 477 kts | 300° |
| 2026-04-28 07:04 | -5.97977 | 110.41046 | 33805 ft | 478 kts | 297° |
| 2026-04-28 07:04 | -5.96899 | 110.37903 | 33802 ft | 478 kts | 281° |
| 2026-04-28 07:05 | -5.96625 | 110.34566 | 33814 ft | 480 kts | 271° |
| 2026-04-28 07:05 | -5.96526 | 110.27841 | 33811 ft | 482 kts | 271° |
| 2026-04-28 07:06 | -5.96503 | 110.21111 | 33813 ft | 482 kts | 270° |
| 2026-04-28 07:06 | -5.96501 | 110.14369 | 33811 ft | 482 kts | 270° |
| 2026-04-28 07:07 | -5.96500 | 110.07681 | 33812 ft | 482 kts | 270° |
| 2026-04-28 07:07 | -5.96497 | 110.00940 | 33809 ft | 483 kts | 270° |
| 2026-04-28 07:08 | -5.96494 | 109.94193 | 33814 ft | 483 kts | 270° |
| 2026-04-28 07:08 | -5.96490 | 109.87440 | 33810 ft | 483 kts | 270° |
| 2026-04-28 07:09 | -5.96485 | 109.80704 | 33809 ft | 483 kts | 270° |
| 2026-04-28 07:09 | -5.96479 | 109.73944 | 33806 ft | 483 kts | 270° |
| 2026-04-28 07:10 | -5.96473 | 109.67202 | 33813 ft | 482 kts | 270° |
| 2026-04-28 07:10 | -5.96465 | 109.60493 | 33805 ft | 482 kts | 270° |
| 2026-04-28 07:11 | -5.96458 | 109.53760 | 33812 ft | 482 kts | 270° |
| 2026-04-28 07:11 | -5.96449 | 109.47009 | 33812 ft | 483 kts | 270° |
| 2026-04-28 07:12 | -5.96439 | 109.40266 | 33818 ft | 483 kts | 270° |
| 2026-04-28 07:12 | -5.96428 | 109.33504 | 33813 ft | 483 kts | 270° |
| 2026-04-28 07:13 | -5.96417 | 109.26738 | 33813 ft | 484 kts | 270° |
| 2026-04-28 07:13 | -5.96404 | 109.19978 | 33812 ft | 484 kts | 270° |
| 2026-04-28 07:14 | -5.96392 | 109.13222 | 33810 ft | 484 kts | 270° |
| 2026-04-28 07:14 | -5.96378 | 109.06454 | 33816 ft | 484 kts | 270° |
| 2026-04-28 07:15 | -5.96363 | 108.99740 | 33814 ft | 484 kts | 270° |
| 2026-04-28 07:15 | -5.96347 | 108.92982 | 33817 ft | 483 kts | 270° |
| 2026-04-28 07:16 | -5.96318 | 108.86230 | 33400 ft | 486 kts | 270° |
| 2026-04-28 07:16 | -5.96281 | 108.82775 | 33103 ft | 498 kts | 271° |
| 2026-04-28 07:16 | -5.96221 | 108.79312 | 33465 ft | 492 kts | 271° |
| 2026-04-28 07:16 | -5.96133 | 108.75928 | 34310 ft | 475 kts | 272° |
| 2026-04-28 07:17 | -5.96092 | 108.72660 | 35034 ft | 463 kts | 268° |
| 2026-04-28 07:17 | -5.96238 | 108.66177 | 34831 ft | 473 kts | 269° |
| 2026-04-28 07:17 | -5.96255 | 108.62867 | 34587 ft | 475 kts | 270° |
| 2026-04-28 07:18 | -5.96255 | 108.59545 | 34354 ft | 476 kts | 270° |
| 2026-04-28 07:18 | -5.96248 | 108.56218 | 34128 ft | 476 kts | 270° |
| 2026-04-28 07:18 | -5.96239 | 108.52888 | 33909 ft | 476 kts | 270° |
| 2026-04-28 07:19 | -5.96433 | 108.46242 | 33816 ft | 476 kts | 261° |
| 2026-04-28 07:19 | -5.97327 | 108.39638 | 33818 ft | 477 kts | 262° |
| 2026-04-28 07:20 | -5.98222 | 108.33031 | 33808 ft | 477 kts | 262° |
| 2026-04-28 07:20 | -5.99109 | 108.26469 | 33812 ft | 477 kts | 262° |
| 2026-04-28 07:21 | -6.00004 | 108.19850 | 33815 ft | 477 kts | 262° |
| 2026-04-28 07:21 | -6.00897 | 108.13243 | 33815 ft | 478 kts | 262° |
| 2026-04-28 07:22 | -6.02236 | 108.03317 | 33815 ft | 478 kts | 262° |
| 2026-04-28 07:22 | -6.03131 | 107.96683 | 33144 ft | 482 kts | 262° |
| 2026-04-28 07:23 | -6.03585 | 107.93310 | 32003 ft | 491 kts | 262° |
| 2026-04-28 07:23 | -6.03890 | 107.91040 | 31341 ft | 495 kts | 262° |
| 2026-04-28 07:23 | -6.04351 | 107.87622 | 30753 ft | 491 kts | 262° |
| 2026-04-28 07:23 | -6.04806 | 107.84236 | 30131 ft | 488 kts | 262° |
| 2026-04-28 07:24 | -6.05261 | 107.80855 | 29338 ft | 488 kts | 262° |
| 2026-04-28 07:24 | -6.05858 | 107.76419 | 28625 ft | 479 kts | 262° |
| 2026-04-28 07:24 | -6.06302 | 107.73110 | 27993 ft | 476 kts | 262° |
| 2026-04-28 07:24 | -6.06599 | 107.70900 | 27614 ft | 472 kts | 262° |
| 2026-04-28 07:25 | -6.07037 | 107.67636 | 27063 ft | 467 kts | 262° |
| 2026-04-28 07:25 | -6.07469 | 107.64419 | 26500 ft | 463 kts | 261° |
| 2026-04-28 07:25 | -6.07896 | 107.61230 | 25975 ft | 458 kts | 261° |
| 2026-04-28 07:25 | -6.08314 | 107.58112 | 25417 ft | 455 kts | 261° |
| 2026-04-28 07:26 | -6.08734 | 107.54972 | 24901 ft | 450 kts | 261° |
| 2026-04-28 07:26 | -6.09150 | 107.51872 | 24378 ft | 447 kts | 261° |
| 2026-04-28 07:26 | -6.09562 | 107.48789 | 23852 ft | 443 kts | 261° |
| 2026-04-28 07:26 | -6.09972 | 107.45724 | 23337 ft | 440 kts | 261° |
| 2026-04-28 07:27 | -6.10376 | 107.42700 | 22709 ft | 437 kts | 261° |
| 2026-04-28 07:27 | -6.10780 | 107.39683 | 22132 ft | 433 kts | 261° |
| 2026-04-28 07:27 | -6.11180 | 107.36689 | 21543 ft | 430 kts | 261° |
| 2026-04-28 07:27 | -6.11576 | 107.33721 | 20985 ft | 427 kts | 261° |
| 2026-04-28 07:28 | -6.11970 | 107.30768 | 20439 ft | 424 kts | 261° |
| 2026-04-28 07:28 | -6.12358 | 107.27862 | 19939 ft | 420 kts | 261° |
| 2026-04-28 07:28 | -6.12747 | 107.24945 | 19275 ft | 422 kts | 261° |
| 2026-04-28 07:28 | -6.13137 | 107.22024 | 18590 ft | 424 kts | 261° |
| 2026-04-28 07:29 | -6.13529 | 107.19078 | 17873 ft | 425 kts | 262° |
| 2026-04-28 07:29 | -6.13921 | 107.16140 | 17097 ft | 426 kts | 262° |
| 2026-04-28 07:29 | -6.14315 | 107.13176 | 16330 ft | 426 kts | 262° |
| 2026-04-28 07:29 | -6.14708 | 107.10225 | 15589 ft | 426 kts | 262° |
| 2026-04-28 07:30 | -6.15101 | 107.07270 | 14864 ft | 426 kts | 262° |
| 2026-04-28 07:30 | -6.15494 | 107.04322 | 14156 ft | 425 kts | 262° |
| 2026-04-28 07:30 | -6.15880 | 107.01414 | 13461 ft | 424 kts | 262° |
| 2026-04-28 07:30 | -6.16270 | 106.98479 | 12684 ft | 423 kts | 262° |
| 2026-04-28 07:31 | -6.16658 | 106.95555 | 11933 ft | 421 kts | 262° |
| 2026-04-28 07:31 | -6.17045 | 106.92642 | 11196 ft | 419 kts | 262° |
| 2026-04-28 07:31 | -6.17431 | 106.89736 | 10482 ft | 417 kts | 262° |
| 2026-04-28 07:31 | -6.17806 | 106.86907 | 9879 ft | 399 kts | 262° |
| 2026-04-28 07:32 | -6.18158 | 106.84257 | 9938 ft | 363 kts | 262° |
| 2026-04-28 07:32 | -6.18476 | 106.81856 | 10013 ft | 332 kts | 262° |
| 2026-04-28 07:32 | -6.18769 | 106.79646 | 9950 ft | 308 kts | 262° |
| 2026-04-28 07:32 | -6.19045 | 106.77563 | 9637 ft | 296 kts | 262° |
| 2026-04-28 07:33 | -6.19312 | 106.75545 | 9200 ft | 293 kts | 262° |
| 2026-04-28 07:33 | -6.19584 | 106.73492 | 8777 ft | 293 kts | 262° |
| 2026-04-28 07:33 | -6.19851 | 106.71477 | 8401 ft | 291 kts | 262° |
| 2026-04-28 07:33 | -6.20113 | 106.69492 | 8049 ft | 289 kts | 262° |
| 2026-04-28 07:34 | -6.20378 | 106.67493 | 7690 ft | 287 kts | 262° |
| 2026-04-28 07:34 | -6.20749 | 106.65531 | 7330 ft | 285 kts | 252° |
| 2026-04-28 07:34 | -6.21374 | 106.63654 | 6985 ft | 283 kts | 250° |
| 2026-04-28 07:34 | -6.22033 | 106.61798 | 6648 ft | 281 kts | 250° |
| 2026-04-28 07:35 | -6.22676 | 106.59940 | 6288 ft | 280 kts | 250° |
| 2026-04-28 07:35 | -6.23296 | 106.58090 | 5923 ft | 279 kts | 251° |
| 2026-04-28 07:35 | -6.23915 | 106.56243 | 5556 ft | 277 kts | 250° |
| 2026-04-28 07:35 | -6.24531 | 106.54409 | 5207 ft | 275 kts | 251° |
| 2026-04-28 07:36 | -6.25131 | 106.52620 | 5052 ft | 265 kts | 250° |
| 2026-04-28 07:36 | -6.25706 | 106.50921 | 4939 ft | 254 kts | 250° |
| 2026-04-28 07:36 | -6.26259 | 106.49277 | 4846 ft | 242 kts | 250° |
| 2026-04-28 07:36 | -6.26793 | 106.47721 | 4771 ft | 229 kts | 250° |
| 2026-04-28 07:37 | -6.27320 | 106.46235 | 4707 ft | 220 kts | 249° |
| 2026-04-28 07:37 | -6.27849 | 106.44749 | 4613 ft | 230 kts | 249° |
| 2026-04-28 07:37 | -6.28392 | 106.43237 | 4516 ft | 236 kts | 250° |
| 2026-04-28 07:37 | -6.28950 | 106.41683 | 4417 ft | 237 kts | 249° |
| 2026-04-28 07:38 | -6.29519 | 106.40109 | 4312 ft | 236 kts | 250° |
| 2026-04-28 07:38 | -6.30068 | 106.38578 | 4208 ft | 236 kts | 250° |
| 2026-04-28 07:38 | -6.30624 | 106.37030 | 4110 ft | 235 kts | 249° |
| 2026-04-28 07:38 | -6.31181 | 106.35487 | 4035 ft | 236 kts | 249° |
| 2026-04-28 07:39 | -6.31743 | 106.33871 | 4009 ft | 253 kts | 256° |
| 2026-04-28 07:39 | -6.31658 | 106.32104 | 3995 ft | 260 kts | 292° |
| 2026-04-28 07:39 | -6.30564 | 106.30702 | 3989 ft | 258 kts | 329° |
| 2026-04-28 07:39 | -6.28882 | 106.30212 | 3994 ft | 254 kts | 5° |
| 2026-04-28 07:40 | -6.27247 | 106.30805 | 4001 ft | 253 kts | 39° |
| 2026-04-28 07:40 | -6.26090 | 106.32129 | 4016 ft | 254 kts | 61° |
| 2026-04-28 07:40 | -6.25508 | 106.33795 | 4005 ft | 254 kts | 80° |
| 2026-04-28 07:40 | -6.25271 | 106.35529 | 3999 ft | 252 kts | 78° |
| 2026-04-28 07:41 | -6.24816 | 106.37185 | 3992 ft | 236 kts | 73° |
| 2026-04-28 07:41 | -6.24367 | 106.38715 | 3997 ft | 221 kts | 73° |
| 2026-04-28 07:41 | -6.23907 | 106.40166 | 4001 ft | 222 kts | 69° |
| 2026-04-28 07:41 | -6.23321 | 106.41601 | 4000 ft | 222 kts | 68° |
| 2026-04-28 07:42 | -6.22739 | 106.43040 | 4016 ft | 218 kts | 69° |
| 2026-04-28 07:42 | -6.22201 | 106.44383 | 4033 ft | 197 kts | 69° |
| 2026-04-28 07:42 | -6.21710 | 106.45616 | 3884 ft | 185 kts | 69° |
| 2026-04-28 07:42 | -6.21244 | 106.46798 | 3666 ft | 179 kts | 69° |
| 2026-04-28 07:43 | -6.20791 | 106.47949 | 3416 ft | 175 kts | 69° |
| 2026-04-28 07:43 | -6.20349 | 106.49072 | 3140 ft | 171 kts | 69° |
| 2026-04-28 07:43 | -6.19930 | 106.50135 | 2943 ft | 155 kts | 69° |
| 2026-04-28 07:43 | -6.19535 | 106.51125 | 2736 ft | 153 kts | 68° |
| 2026-04-28 07:44 | -6.19143 | 106.52107 | 2570 ft | 153 kts | 68° |
| 2026-04-28 07:44 | -6.18746 | 106.53103 | 2406 ft | 154 kts | 68° |
| 2026-04-28 07:44 | -6.18350 | 106.54099 | 2243 ft | 153 kts | 69° |
| 2026-04-28 07:44 | -6.17954 | 106.55090 | 2047 ft | 153 kts | 68° |
| 2026-04-28 07:45 | -6.17559 | 106.56082 | 1826 ft | 151 kts | 67° |
| 2026-04-28 07:45 | -6.17171 | 106.57059 | 1640 ft | 150 kts | 66° |
| 2026-04-28 07:45 | -6.16778 | 106.58038 | 1507 ft | 151 kts | 66° |
| 2026-04-28 07:45 | -6.16391 | 106.59011 | 1363 ft | 150 kts | 66° |
| 2026-04-28 07:46 | -6.16003 | 106.59981 | 1198 ft | 151 kts | 68° |
| 2026-04-28 07:46 | -6.15615 | 106.60953 | 942 ft | 149 kts | 66° |
| 2026-04-28 07:46 | -6.15229 | 106.61926 | 654 ft | 150 kts | 66° |
| 2026-04-28 07:46 | -6.14849 | 106.62885 | 403 ft | 145 kts | 66° |
| 2026-04-28 07:47 | -6.14475 | 106.63810 | 223 ft | 142 kts | 66° |
| 2026-04-28 07:47 | -6.14110 | 106.64714 | 45 ft | 135 kts | 65° |
| 2026-04-28 07:47 | -6.13881 | 106.65263 | 41 ft | 0 kts | 72° |